createdAt,value
2023-01-17T00:00:41.176Z,87.63
2023-01-17T00:02:59.249Z,88.15
2023-01-17T00:05:17.319Z,87.63
2023-01-17T00:07:37.850Z,88.26
2023-01-17T00:09:52.435Z,88.26
2023-01-17T00:12:10.527Z,88.61
2023-01-17T00:14:26.117Z,88.51
2023-01-17T00:16:40.269Z,89.13
2023-01-17T00:18:57.794Z,89.23
2023-01-17T00:21:15.868Z,88.85
2023-01-17T00:23:33.960Z,89.79
2023-01-17T00:25:49.539Z,89.89
2023-01-17T00:28:05.145Z,90.04
2023-01-17T00:30:20.720Z,90.45
2023-01-17T00:32:38.801Z,90.14
2023-01-17T00:34:53.399Z,90.04
2023-01-17T00:37:08.975Z,90.56
2023-01-17T00:39:24.578Z,90.77
2023-01-17T00:41:42.662Z,90.70
2023-01-17T00:43:58.239Z,91.22
2023-01-17T00:46:16.385Z,91.33
2023-01-17T00:48:30.934Z,91.02
2023-01-17T00:50:44.516Z,90.91
2023-01-17T00:53:02.591Z,91.02
2023-01-17T00:55:20.698Z,91.02
2023-01-17T00:57:38.757Z,91.22
2023-01-17T00:59:54.349Z,91.22
2023-01-17T01:02:07.911Z,91.12
2023-01-17T01:04:25.867Z,91.33
2023-01-17T01:06:41.439Z,91.53
2023-01-17T01:08:57.040Z,91.74
2023-01-17T01:11:10.126Z,91.64
2023-01-17T01:13:25.783Z,91.39
2023-01-17T01:15:41.319Z,90.87
2023-01-17T01:17:56.918Z,90.77
2023-01-17T01:20:12.501Z,90.56
2023-01-17T01:22:28.082Z,90.04
2023-01-17T01:24:43.702Z,90.45
2023-01-17T01:26:59.234Z,90.56
2023-01-17T01:29:17.335Z,90.87
2023-01-17T01:31:30.486Z,90.91
2023-01-17T01:33:46.019Z,91.12
2023-01-17T01:36:01.135Z,91.08
2023-01-17T01:38:19.232Z,90.77
2023-01-17T01:40:34.762Z,90.56
2023-01-17T01:42:50.359Z,90.45
2023-01-17T01:45:08.461Z,90.56
2023-01-17T01:47:24.407Z,90.35
2023-01-17T01:49:39.950Z,89.62
2023-01-17T01:51:58.060Z,90.04
2023-01-17T01:54:18.686Z,90.35
2023-01-17T01:56:34.227Z,90.29
2023-01-17T01:58:49.852Z,90.39
2023-01-17T02:01:05.511Z,90.81
2023-01-17T02:03:20.998Z,91.02
2023-01-17T02:05:36.580Z,91.22
2023-01-17T02:07:52.176Z,91.12
2023-01-17T02:10:05.786Z,90.39
2023-01-17T02:12:23.824Z,90.35
2023-01-17T02:14:39.441Z,90.35
2023-01-17T02:16:55.015Z,90.04
2023-01-17T02:19:10.582Z,89.48
2023-01-17T02:21:26.321Z,89.17
2023-01-17T02:23:41.763Z,89.27
2023-01-17T02:25:59.840Z,89.69
2023-01-17T02:28:15.424Z,90.04
2023-01-17T02:30:33.518Z,89.73
2023-01-17T02:32:48.135Z,89.27
2023-01-17T02:35:06.183Z,89.69
2023-01-17T02:37:24.268Z,89.94
2023-01-17T02:39:38.840Z,90.25
2023-01-17T02:41:56.947Z,90.10
2023-01-17T02:44:12.574Z,90.20
2023-01-17T02:46:30.639Z,88.82
2023-01-17T02:48:46.234Z,88.61
2023-01-17T02:51:01.835Z,88.57
2023-01-17T02:53:17.426Z,88.88
2023-01-17T02:55:35.535Z,88.98
2023-01-17T02:57:53.587Z,88.57
2023-01-17T03:00:11.653Z,88.94
2023-01-17T03:02:29.825Z,88.84
2023-01-17T03:04:45.444Z,88.73
2023-01-17T03:07:00.951Z,88.42
2023-01-17T03:09:16.531Z,89.46
2023-01-17T03:11:34.921Z,89.56
2023-01-17T03:13:53.037Z,89.92
2023-01-17T03:16:08.723Z,90.54
2023-01-17T03:18:26.919Z,90.39
2023-01-17T03:20:42.275Z,90.19
2023-01-17T03:22:58.840Z,90.29
2023-01-17T03:25:16.932Z,90.70
2023-01-17T03:27:32.516Z,90.60
2023-01-17T03:29:53.226Z,90.70
2023-01-17T03:32:11.181Z,91.02
2023-01-17T03:34:29.309Z,91.43
2023-01-17T03:36:44.941Z,91.43
2023-01-17T03:39:03.082Z,91.74
2023-01-17T03:41:18.624Z,91.53
2023-01-17T03:43:35.030Z,91.64
2023-01-17T03:45:48.756Z,91.70
2023-01-17T03:48:06.819Z,91.70
2023-01-17T03:50:22.409Z,91.80
2023-01-17T03:52:40.515Z,92.11
2023-01-17T03:54:56.057Z,91.91
2023-01-17T03:57:11.642Z,92.32
2023-01-17T03:59:29.743Z,92.22
2023-01-17T04:01:46.479Z,92.43
2023-01-17T04:04:04.424Z,91.86
2023-01-17T04:06:19.965Z,91.55
2023-01-17T04:08:38.088Z,91.45
2023-01-17T04:10:53.662Z,91.45
2023-01-17T04:13:11.760Z,91.86
2023-01-17T04:15:27.361Z,91.86
2023-01-17T04:17:45.427Z,91.76
2023-01-17T04:19:59.997Z,92.55
2023-01-17T04:22:18.099Z,94.45
2023-01-17T04:24:36.181Z,95.70
2023-01-17T04:26:54.296Z,95.80
2023-01-17T04:29:12.364Z,96.05
2023-01-17T04:31:27.986Z,95.90
2023-01-17T04:33:46.894Z,96.47
2023-01-17T04:36:00.634Z,96.47
2023-01-17T04:38:21.302Z,96.26
2023-01-17T04:40:36.830Z,96.11
2023-01-17T04:42:54.891Z,95.90
2023-01-17T04:45:10.465Z,95.80
2023-01-17T04:47:28.565Z,95.28
2023-01-17T04:49:49.181Z,95.59
2023-01-17T04:52:05.755Z,95.07
2023-01-17T04:54:23.831Z,94.87
2023-01-17T04:56:41.922Z,94.24
2023-01-17T04:59:00.013Z,94.56
2023-01-17T05:01:18.217Z,93.37
2023-01-17T05:03:36.217Z,92.96
2023-01-17T05:05:50.729Z,92.76
2023-01-17T05:08:08.894Z,92.76
2023-01-17T05:10:26.923Z,92.76
2023-01-17T05:12:42.545Z,92.55
2023-01-17T05:15:00.588Z,92.65
2023-01-17T05:17:15.187Z,92.85
2023-01-17T05:19:33.263Z,92.65
2023-01-17T05:21:51.373Z,92.34
2023-01-17T05:24:06.968Z,92.76
2023-01-17T05:26:21.139Z,92.44
2023-01-17T05:28:36.818Z,92.03
2023-01-17T05:30:51.762Z,92.03
2023-01-17T05:33:09.810Z,91.61
2023-01-17T05:35:27.933Z,90.95
2023-01-17T05:37:46.023Z,90.89
2023-01-17T05:40:01.163Z,91.61
2023-01-17T05:42:19.222Z,92.03
2023-01-17T05:44:34.808Z,91.61
2023-01-17T05:46:50.404Z,91.09
2023-01-17T05:49:05.989Z,90.78
2023-01-17T05:51:24.128Z,90.68
2023-01-17T05:53:39.715Z,90.68
2023-01-17T05:55:57.797Z,91.41
2023-01-17T05:58:13.451Z,90.89
2023-01-17T06:00:27.963Z,90.78
2023-01-17T06:02:49.620Z,90.47
2023-01-17T06:05:07.685Z,90.99
2023-01-17T06:07:25.740Z,90.99
2023-01-17T06:09:43.836Z,90.37
2023-01-17T06:12:01.903Z,90.06
2023-01-17T06:14:16.536Z,89.44
2023-01-17T06:16:32.127Z,89.65
2023-01-17T06:18:51.196Z,90.16
2023-01-17T06:21:09.308Z,90.78
2023-01-17T06:23:24.882Z,90.06
2023-01-17T06:25:40.520Z,89.96
2023-01-17T06:27:56.040Z,89.96
2023-01-17T06:30:11.639Z,90.16
2023-01-17T06:32:27.265Z,90.06
2023-01-17T06:34:45.317Z,90.47
2023-01-17T06:37:03.415Z,90.68
2023-01-17T06:39:18.978Z,90.37
2023-01-17T06:41:34.426Z,90.99
2023-01-17T06:43:49.205Z,90.68
2023-01-17T06:46:07.252Z,91.20
2023-01-17T06:48:22.843Z,91.20
2023-01-17T06:50:38.447Z,91.30
2023-01-17T06:52:53.018Z,92.80
2023-01-17T06:55:11.125Z,93.31
2023-01-17T06:57:26.729Z,93.52
2023-01-17T06:59:44.821Z,93.93
2023-01-17T07:02:02.909Z,93.62
2023-01-17T07:04:18.498Z,94.04
2023-01-17T07:06:34.129Z,93.83
2023-01-17T07:08:52.209Z,93.73
2023-01-17T07:11:10.295Z,93.93
2023-01-17T07:13:26.859Z,93.62
2023-01-17T07:15:44.975Z,93.10
2023-01-17T07:18:01.599Z,93.93
2023-01-17T07:20:18.090Z,94.35
2023-01-17T07:22:36.190Z,94.29
2023-01-17T07:24:54.290Z,94.70
2023-01-17T07:27:14.899Z,93.56
2023-01-17T07:29:33.032Z,92.80
2023-01-17T07:31:53.618Z,92.90
2023-01-17T07:34:11.654Z,92.38
2023-01-17T07:36:29.826Z,92.90
2023-01-17T07:38:50.336Z,91.55
2023-01-17T07:41:05.975Z,91.14
2023-01-17T07:43:24.002Z,90.68
2023-01-17T07:45:39.620Z,91.09
2023-01-17T07:47:57.751Z,90.47
2023-01-17T07:50:15.841Z,90.26
2023-01-17T07:52:31.476Z,90.68
2023-01-17T07:54:49.467Z,90.72
2023-01-17T07:57:07.622Z,90.26
2023-01-17T07:59:25.666Z,90.78
2023-01-17T08:01:47.133Z,90.58
2023-01-17T08:04:04.931Z,90.41
2023-01-17T08:06:22.959Z,90.72
2023-01-17T08:08:40.529Z,90.62
2023-01-17T08:10:59.499Z,90.47
2023-01-17T08:13:17.252Z,90.58
2023-01-17T08:15:37.343Z,90.68
2023-01-17T08:17:57.968Z,89.96
2023-01-17T08:20:16.005Z,91.82
2023-01-17T08:22:30.607Z,92.55
2023-01-17T08:24:47.201Z,92.07
2023-01-17T08:27:02.822Z,92.28
2023-01-17T08:29:18.182Z,91.55
2023-01-17T08:31:37.059Z,91.41
2023-01-17T08:34:46.106Z,90.16
2023-01-17T08:37:01.287Z,89.86
2023-01-17T08:39:16.626Z,89.86
2023-01-17T08:41:37.215Z,89.13
2023-01-17T08:43:55.099Z,88.40
2023-01-17T08:46:15.706Z,88.61
2023-01-17T08:48:33.809Z,88.92
2023-01-17T08:51:34.451Z,88.61
2023-01-17T08:53:50.130Z,88.51
2023-01-17T08:56:08.307Z,88.40
2023-01-17T08:58:30.720Z,89.03
2023-01-17T09:00:44.411Z,88.92
2023-01-17T09:02:58.992Z,89.54
2023-01-17T09:05:15.587Z,89.54
2023-01-17T09:07:33.821Z,89.34
2023-01-17T09:09:51.910Z,90.58
2023-01-17T09:12:09.872Z,90.78
2023-01-17T09:14:28.806Z,91.93
2023-01-17T09:16:44.613Z,93.62
2023-01-17T09:18:59.147Z,94.35
2023-01-17T09:21:17.425Z,94.56
2023-01-17T09:23:35.281Z,94.35
2023-01-17T09:25:52.924Z,94.04
2023-01-17T09:28:11.047Z,93.83
2023-01-17T09:30:26.864Z,93.73
2023-01-17T09:32:45.258Z,94.04
2023-01-17T09:35:05.504Z,94.24
2023-01-17T09:37:23.415Z,92.90
2023-01-17T09:39:44.736Z,93.31
2023-01-17T09:41:59.121Z,93.16
2023-01-17T09:44:16.867Z,93.37
2023-01-17T09:46:37.756Z,92.65
2023-01-17T09:48:56.212Z,91.93
2023-01-17T09:51:18.286Z,91.82
2023-01-17T09:53:34.691Z,91.55
2023-01-17T09:55:56.381Z,92.07
2023-01-17T09:58:11.854Z,92.65
2023-01-17T10:00:29.598Z,92.76
2023-01-17T10:02:48.126Z,91.76
2023-01-17T10:05:06.570Z,93.46
2023-01-17T10:07:22.157Z,95.32
2023-01-17T10:09:43.177Z,94.43
2023-01-17T10:11:57.652Z,94.02
2023-01-17T10:14:13.195Z,93.40
2023-01-17T10:16:31.327Z,93.98
2023-01-17T10:18:46.599Z,93.15
2023-01-17T10:21:03.907Z,92.63
2023-01-17T10:23:18.808Z,92.59
2023-01-17T10:25:36.710Z,91.45
2023-01-17T10:27:54.688Z,90.89
2023-01-17T10:30:08.549Z,89.54
2023-01-17T10:32:26.504Z,89.75
2023-01-17T10:34:43.619Z,88.88
2023-01-17T10:37:04.551Z,89.65
2023-01-17T10:58:01.493Z,92.05
2023-01-17T11:00:19.460Z,93.65
2023-01-17T11:02:34.095Z,95.56
2023-01-17T11:04:52.148Z,97.93
2023-01-17T11:07:08.934Z,99.54
2023-01-17T11:09:27.141Z,99.99
2023-01-17T11:11:45.287Z,99.99
2023-01-17T11:13:59.674Z,99.99
2023-01-17T11:16:16.741Z,99.99
2023-01-17T11:18:37.692Z,99.99
2023-01-17T11:20:52.159Z,99.99
2023-01-17T11:23:10.404Z,99.99
2023-01-17T11:25:28.835Z,99.99
2023-01-17T11:27:43.161Z,99.99
2023-01-17T11:29:58.979Z,99.99
2023-01-17T11:32:16.274Z,99.99
2023-01-17T11:34:31.936Z,99.99
2023-01-17T11:36:46.658Z,99.99
2023-01-17T11:39:01.416Z,99.99
2023-01-17T11:41:17.614Z,99.99
2023-01-17T11:43:33.256Z,99.99
2023-01-17T11:45:47.930Z,99.99
2023-01-17T11:48:03.369Z,99.99
2023-01-17T11:50:19.931Z,99.99
2023-01-17T11:52:34.519Z,99.99
2023-01-17T11:54:49.083Z,99.99
2023-01-17T11:57:07.241Z,99.99
2023-01-17T11:59:25.330Z,99.99
2023-01-17T12:01:45.878Z,99.99
2023-01-17T12:04:00.637Z,99.99
2023-01-17T12:06:18.154Z,99.99
2023-01-17T12:08:36.070Z,99.99
2023-01-17T12:10:51.668Z,99.99
2023-01-17T12:13:09.774Z,99.99
2023-01-17T12:15:25.327Z,99.99
2023-01-17T12:17:41.981Z,99.99
2023-01-17T12:20:03.093Z,99.99
2023-01-17T12:22:17.681Z,99.99
2023-01-17T12:24:36.030Z,99.99
2023-01-17T12:26:51.344Z,99.99
2023-01-17T12:29:03.684Z,99.99
2023-01-17T12:31:21.679Z,99.99
2023-01-17T12:33:37.259Z,99.04
2023-01-17T12:35:55.330Z,99.99
2023-01-17T12:38:27.378Z,99.15
2023-01-17T12:40:29.035Z,97.49
2023-01-17T12:42:44.621Z,97.49
2023-01-17T12:44:58.232Z,96.66
2023-01-17T12:47:13.772Z,98.73
2023-01-17T12:49:29.447Z,96.97
2023-01-17T12:51:48.176Z,96.86
2023-01-17T12:54:00.599Z,96.76
2023-01-17T12:56:16.179Z,97.90
2023-01-17T12:58:31.761Z,94.89
2023-01-17T13:00:47.432Z,94.95
2023-01-17T13:03:04.011Z,95.16
2023-01-17T13:05:19.676Z,94.79
2023-01-17T13:07:33.242Z,95.41
2023-01-17T13:09:54.375Z,96.45
2023-01-17T13:12:10.081Z,97.22
2023-01-17T13:15:28.784Z,94.15
2023-01-17T13:17:45.760Z,95.71
2023-01-17T13:20:01.207Z,96.02
2023-01-17T13:22:21.619Z,96.79
2023-01-17T13:27:25.264Z,97.62
2023-01-17T13:29:41.711Z,98.03
2023-01-17T13:31:56.317Z,97.83
2023-01-17T13:34:11.906Z,98.55
2023-01-17T13:36:26.522Z,99.03
2023-01-17T13:38:44.579Z,98.61
2023-01-17T13:40:58.280Z,99.34
2023-01-17T13:43:13.816Z,98.61
2023-01-17T13:45:29.392Z,98.88
2023-01-17T13:47:44.960Z,98.88
2023-01-17T13:50:03.390Z,98.57
2023-01-17T13:52:21.453Z,98.94
2023-01-17T13:54:37.850Z,97.80
2023-01-17T13:56:57.967Z,96.24
2023-01-17T13:59:18.028Z,94.27
2023-01-17T14:01:36.525Z,94.89
2023-01-17T14:04:21.860Z,94.79
2023-01-17T14:13:47.887Z,94.42
2023-01-17T14:17:43.765Z,89.75
2023-01-17T14:20:01.966Z,90.06
2023-01-17T14:22:19.760Z,90.52
2023-01-17T14:24:35.784Z,90.83
2023-01-17T14:26:48.956Z,90.77
2023-01-17T14:29:04.512Z,89.31
2023-01-17T14:31:17.640Z,89.62
2023-01-17T14:33:32.043Z,91.85
2023-01-17T14:35:46.865Z,90.50
2023-01-17T14:38:02.383Z,90.44
2023-01-17T14:40:20.476Z,91.37
2023-01-17T14:42:36.069Z,89.56
2023-01-17T14:44:49.643Z,90.39
2023-01-17T14:47:04.276Z,90.75
2023-01-17T14:49:22.305Z,92.51
2023-01-17T14:51:40.407Z,91.78
2023-01-17T14:53:55.999Z,91.68
2023-01-17T14:56:10.563Z,92.55
2023-01-17T14:58:25.292Z,92.97
2023-01-17T15:00:45.758Z,94.26
2023-01-17T15:03:03.856Z,94.93
2023-01-17T15:05:19.431Z,95.60
2023-01-17T15:07:35.047Z,96.37
2023-01-17T15:09:49.621Z,97.52
2023-01-17T15:12:05.177Z,97.98
2023-01-17T15:14:20.922Z,98.34
2023-01-17T15:16:41.511Z,99.27
2023-01-17T15:18:57.068Z,99.99
2023-01-17T15:21:16.000Z,99.99
2023-01-17T15:23:29.704Z,99.99
2023-01-17T15:25:47.809Z,99.99
2023-01-17T15:28:01.132Z,99.99
2023-01-17T15:30:19.204Z,99.99
2023-01-17T15:32:33.802Z,99.99
2023-01-17T15:34:48.375Z,99.99
2023-01-17T15:37:06.474Z,99.99
2023-01-17T15:39:22.083Z,99.99
2023-01-17T15:41:40.142Z,99.99
2023-01-17T15:43:56.733Z,99.99
2023-01-17T15:46:14.893Z,99.99
2023-01-17T15:48:28.922Z,99.99
2023-01-17T15:50:47.470Z,99.99
2023-01-17T15:53:03.090Z,99.99
2023-01-17T15:55:18.684Z,99.99
2023-01-17T15:57:35.228Z,99.99
2023-01-17T15:59:48.839Z,99.99
2023-01-17T16:02:03.397Z,99.99
2023-01-17T16:04:21.496Z,99.99
2023-01-17T16:06:37.085Z,99.99
2023-01-17T16:08:57.649Z,99.99
2023-01-17T16:11:14.066Z,99.99
2023-01-17T16:14:20.476Z,99.99
2023-01-17T16:16:41.145Z,99.99
2023-01-17T16:18:59.140Z,99.99
2023-01-17T16:21:17.226Z,99.99
2023-01-17T16:23:37.861Z,99.99
2023-01-17T16:25:51.739Z,99.99
2023-01-17T16:28:06.996Z,99.99
2023-01-17T16:30:21.602Z,99.99
2023-01-17T16:32:39.671Z,99.99
2023-01-17T16:34:53.270Z,99.99
2023-01-17T16:37:11.347Z,99.99
2023-01-17T16:39:29.436Z,99.99
2023-01-17T16:41:47.536Z,99.99
2023-01-17T16:44:05.621Z,99.99
2023-01-17T16:46:21.377Z,99.99
2023-01-17T16:48:39.392Z,99.99
2023-01-17T16:50:57.444Z,99.99
2023-01-17T16:53:13.062Z,99.99
2023-01-17T16:55:28.633Z,99.99
2023-01-17T16:57:50.052Z,99.99
2023-01-17T17:00:05.312Z,99.99
2023-01-17T17:02:23.542Z,99.99
2023-01-17T17:04:41.480Z,99.99
2023-01-17T17:06:59.591Z,99.99
2023-01-17T17:09:17.689Z,99.99
2023-01-17T17:11:34.104Z,99.99
2023-01-17T17:13:46.968Z,99.99
2023-01-17T17:16:05.215Z,99.99
2023-01-17T17:18:19.147Z,99.99
2023-01-17T17:20:39.739Z,99.99
2023-01-17T17:22:57.809Z,99.99
2023-01-17T17:25:15.917Z,99.99
2023-01-17T17:27:31.631Z,99.99
2023-01-17T17:29:47.098Z,99.99
2023-01-17T17:32:02.710Z,99.99
2023-01-17T17:34:18.264Z,99.99
2023-01-17T17:36:37.195Z,99.99
2023-01-17T17:38:52.012Z,99.99
2023-01-17T17:41:06.546Z,99.99
2023-01-17T17:43:26.470Z,99.99
2023-01-17T17:45:40.188Z,99.99
2023-01-17T17:47:59.522Z,99.99
2023-01-17T17:50:14.905Z,99.99
2023-01-17T17:52:26.997Z,99.99
2023-01-17T17:54:42.586Z,99.99
2023-01-17T17:56:58.173Z,99.99
2023-01-17T17:59:11.526Z,99.99
2023-01-17T18:01:27.490Z,99.99
2023-01-17T18:03:42.742Z,99.99
2023-01-17T18:05:58.370Z,99.99
2023-01-17T18:08:14.359Z,99.99
2023-01-17T18:10:29.532Z,99.99
2023-01-17T18:12:47.641Z,99.99
2023-01-17T18:15:03.247Z,99.99
2023-01-17T18:17:15.369Z,99.99
2023-01-17T18:20:27.498Z,99.99
2023-01-17T18:22:45.095Z,99.99
2023-01-17T18:25:00.738Z,99.99
2023-01-17T18:27:18.776Z,99.99
2023-01-17T18:29:37.001Z,99.99
2023-01-17T18:31:54.963Z,99.99
2023-01-17T18:36:48.199Z,99.99
2023-01-17T18:40:55.757Z,99.99
2023-01-17T18:45:53.406Z,99.99
2023-01-17T18:48:30.982Z,99.99
2023-01-17T18:50:32.601Z,99.99
2023-01-17T18:56:33.852Z,99.99
2023-01-17T18:59:29.346Z,99.99
2023-01-17T19:01:11.035Z,99.99
2023-01-17T19:03:28.015Z,99.99
2023-01-17T19:10:34.522Z,99.99
2023-01-17T19:12:37.290Z,99.99
2023-01-17T19:32:34.305Z,99.99
2023-01-17T19:34:52.055Z,99.99
2023-01-17T19:36:56.288Z,99.99
2023-01-17T19:40:47.028Z,99.99
2023-01-17T19:57:11.733Z,99.99
2023-01-17T20:00:13.789Z,99.99
2023-01-17T20:13:40.996Z,99.99
